createdAt,value
2023-03-13T00:00:01.219Z,11.71
2023-03-13T00:02:48.100Z,11.64
2023-03-13T00:05:36.194Z,11.71
2023-03-13T00:08:23.748Z,11.44
2023-03-13T00:11:12.432Z,11.70
2023-03-13T00:14:02.646Z,11.65
2023-03-13T00:16:49.503Z,11.74
2023-03-13T00:19:36.383Z,11.56
2023-03-13T00:22:23.181Z,11.58
2023-03-13T00:25:10.043Z,11.70
2023-03-13T00:27:57.218Z,11.41
2023-03-13T00:30:44.011Z,11.57
2023-03-13T00:33:32.923Z,11.44
2023-03-13T00:36:25.597Z,11.66
2023-03-13T00:39:12.389Z,11.77
2023-03-13T00:42:00.128Z,12.09
2023-03-13T00:44:48.190Z,12.17
2023-03-13T00:47:34.999Z,11.85
2023-03-13T00:50:22.080Z,12.01
2023-03-13T00:53:08.901Z,12.05
2023-03-13T00:55:57.655Z,12.03
2023-03-13T00:58:46.266Z,11.71
2023-03-13T01:01:36.463Z,11.86
2023-03-13T01:04:23.331Z,11.50
2023-03-13T01:07:10.480Z,11.66
2023-03-13T01:09:57.473Z,11.57
2023-03-13T01:12:44.481Z,11.24
2023-03-13T01:15:34.683Z,11.44
2023-03-13T01:18:21.809Z,11.80
2023-03-13T01:21:08.886Z,12.00
2023-03-13T01:23:55.834Z,11.68
2023-03-13T01:26:42.636Z,11.49
2023-03-13T01:29:29.395Z,11.54
2023-03-13T01:32:16.304Z,11.90
2023-03-13T01:35:03.278Z,11.40
2023-03-13T01:37:50.067Z,11.31
2023-03-13T01:40:42.504Z,11.38
2023-03-13T01:43:31.594Z,11.47
2023-03-13T01:46:24.699Z,11.54
2023-03-13T01:49:22.568Z,11.68
2023-03-13T01:52:32.769Z,11.81
2023-03-13T01:55:27.509Z,11.68
2023-03-13T01:58:15.562Z,11.97
2023-03-13T02:01:03.766Z,12.05
2023-03-13T02:03:50.993Z,11.69
2023-03-13T02:06:41.345Z,11.71
2023-03-13T02:09:31.971Z,11.80
2023-03-13T02:12:31.129Z,11.53
2023-03-13T02:15:21.198Z,11.70
2023-03-13T02:18:08.119Z,11.42
2023-03-13T02:21:08.121Z,11.46
2023-03-13T02:24:07.797Z,11.64
2023-03-13T02:26:54.852Z,11.35
2023-03-13T02:29:41.751Z,11.65
2023-03-13T02:32:31.528Z,11.70
2023-03-13T02:35:21.809Z,11.59
2023-03-13T02:38:12.725Z,11.35
2023-03-13T02:41:02.582Z,11.57
2023-03-13T02:43:49.787Z,12.07
2023-03-13T02:46:50.353Z,11.75
2023-03-13T02:49:38.951Z,11.68
2023-03-13T02:52:33.095Z,11.83
2023-03-13T02:55:40.652Z,11.66
2023-03-13T02:58:44.112Z,11.82
2023-03-13T03:01:35.962Z,11.38
2023-03-13T03:04:25.141Z,11.54
2023-03-13T03:07:15.424Z,11.28
2023-03-13T03:10:02.392Z,11.48
2023-03-13T03:12:49.719Z,11.70
2023-03-13T03:15:36.545Z,11.31
2023-03-13T03:18:23.828Z,11.27
2023-03-13T03:21:10.678Z,11.53
2023-03-13T03:23:59.852Z,11.65
2023-03-13T03:26:47.003Z,11.75
2023-03-13T03:29:41.390Z,11.89
2023-03-13T03:32:29.283Z,12.38
2023-03-13T03:34:55.883Z,11.64
2023-03-13T03:37:23.491Z,11.75
2023-03-13T03:39:50.005Z,11.72
2023-03-13T03:42:16.586Z,12.50
2023-03-13T03:44:43.579Z,12.56
2023-03-13T03:47:11.454Z,11.96
2023-03-13T03:49:41.886Z,11.88
2023-03-13T03:52:11.067Z,11.84
2023-03-13T03:54:40.452Z,11.85
2023-03-13T03:57:07.219Z,11.45
2023-03-13T03:59:35.205Z,11.43
2023-03-13T04:02:07.709Z,11.53
2023-03-13T04:04:35.640Z,11.76
2023-03-13T04:07:09.048Z,11.47
2023-03-13T04:09:35.621Z,12.19
2023-03-13T04:12:04.002Z,12.06
2023-03-13T04:14:34.646Z,11.50
2023-03-13T04:17:04.709Z,11.76
2023-03-13T04:19:31.258Z,11.70
2023-03-13T04:21:58.107Z,12.00
2023-03-13T04:24:24.786Z,11.90
2023-03-13T04:26:51.384Z,12.27
2023-03-13T04:29:17.952Z,11.92
2023-03-13T04:32:00.493Z,11.65
2023-03-13T04:34:45.779Z,11.97
2023-03-13T04:37:24.771Z,11.41
2023-03-13T04:40:10.437Z,11.99
2023-03-13T04:42:51.313Z,11.65
2023-03-13T04:45:36.060Z,11.81
2023-03-13T04:48:21.502Z,12.18
2023-03-13T04:51:23.318Z,11.90
2023-03-13T04:54:08.974Z,11.74
2023-03-13T04:56:52.089Z,11.98
2023-03-13T04:59:38.871Z,11.58
2023-03-13T05:02:12.079Z,11.70
2023-03-13T05:04:41.447Z,12.25
2023-03-13T05:07:34.101Z,11.52
2023-03-13T05:10:08.174Z,12.37
2023-03-13T05:12:53.087Z,12.45
2023-03-13T05:15:31.356Z,12.11
2023-03-13T05:18:16.318Z,11.90
2023-03-13T05:21:01.085Z,12.07
2023-03-13T05:23:50.464Z,12.28
2023-03-13T05:26:46.339Z,12.28
2023-03-13T05:29:36.801Z,12.33
2023-03-13T05:32:13.766Z,12.25
2023-03-13T05:34:55.138Z,12.27
2023-03-13T05:37:41.395Z,12.40
2023-03-13T05:40:34.531Z,12.66
2023-03-13T05:43:06.989Z,11.94
2023-03-13T05:45:52.364Z,12.59
2023-03-13T05:48:37.398Z,12.34
2023-03-13T05:51:22.774Z,12.57
2023-03-13T05:54:15.698Z,11.04
2023-03-13T05:56:54.638Z,12.11
2023-03-13T05:59:54.411Z,12.16
2023-03-13T06:02:54.116Z,12.22
2023-03-13T06:05:28.072Z,12.43
2023-03-13T06:07:54.849Z,12.40
2023-03-13T06:10:21.442Z,12.46
2023-03-13T06:12:55.830Z,12.93
2023-03-13T06:15:25.742Z,12.48
2023-03-13T06:17:58.785Z,12.72
2023-03-13T06:20:25.318Z,12.55
2023-03-13T06:22:51.819Z,12.33
2023-03-13T06:25:18.376Z,12.40
2023-03-13T06:27:44.881Z,12.77
2023-03-13T06:30:11.961Z,12.70
2023-03-13T06:32:38.571Z,12.26
2023-03-13T06:35:05.888Z,12.18
2023-03-13T06:37:32.478Z,12.45
2023-03-13T06:39:59.037Z,12.14
2023-03-13T06:42:25.574Z,12.32
2023-03-13T06:44:52.065Z,11.80
2023-03-13T06:47:18.636Z,12.03
2023-03-13T06:49:45.192Z,12.69
2023-03-13T06:52:11.873Z,12.96
2023-03-13T06:54:38.335Z,12.67
2023-03-13T06:57:04.865Z,13.44
2023-03-13T06:59:31.374Z,13.22
2023-03-13T07:01:57.961Z,12.72
2023-03-13T07:04:24.428Z,13.43
2023-03-13T07:06:51.985Z,13.78
2023-03-13T07:09:19.985Z,13.40
2023-03-13T07:11:46.537Z,13.47
2023-03-13T07:14:17.368Z,13.01
2023-03-13T07:16:45.530Z,13.00
2023-03-13T07:19:12.256Z,12.98
2023-03-13T07:21:38.759Z,13.04
2023-03-13T07:24:05.582Z,13.45
2023-03-13T07:26:32.515Z,13.10
2023-03-13T07:28:59.268Z,12.66
2023-03-13T07:31:26.205Z,12.71
2023-03-13T07:33:56.352Z,13.05
2023-03-13T07:36:23.248Z,13.03
2023-03-13T07:38:50.678Z,13.07
2023-03-13T07:41:18.428Z,13.73
2023-03-13T07:43:45.588Z,14.61
2023-03-13T07:46:18.759Z,14.79
2023-03-13T07:48:46.021Z,13.65
2023-03-13T07:51:16.868Z,13.94
2023-03-13T07:53:44.409Z,13.40
2023-03-13T07:56:16.363Z,13.56
2023-03-13T07:58:43.661Z,13.56
2023-03-13T08:01:13.180Z,13.49
2023-03-13T08:03:40.085Z,13.48
2023-03-13T08:06:12.101Z,13.65
2023-03-13T08:08:39.294Z,13.39
2023-03-13T08:11:12.113Z,13.93
2023-03-13T08:13:38.704Z,13.78
2023-03-13T08:16:19.863Z,14.80
2023-03-13T08:18:49.030Z,13.76
2023-03-13T08:21:22.575Z,13.64
2023-03-13T08:23:49.434Z,13.75
2023-03-13T08:26:21.198Z,14.72
2023-03-13T08:28:52.006Z,13.98
2023-03-13T08:31:22.725Z,13.68
2023-03-13T08:33:49.669Z,15.45
2023-03-13T08:36:25.709Z,15.71
2023-03-13T08:38:54.404Z,15.05
2023-03-13T08:41:26.360Z,15.70
2023-03-13T08:43:53.487Z,14.62
2023-03-13T08:46:20.172Z,14.56
2023-03-13T08:48:51.480Z,14.62
2023-03-13T08:51:19.249Z,14.29
2023-03-13T08:53:46.193Z,14.57
2023-03-13T08:56:15.419Z,15.92
2023-03-13T08:58:42.033Z,16.47
2023-03-13T09:01:13.815Z,15.14
2023-03-13T09:03:41.295Z,15.96
2023-03-13T09:06:10.425Z,16.63
2023-03-13T09:08:38.555Z,15.37
2023-03-13T09:11:11.593Z,15.31
2023-03-13T09:13:40.067Z,15.85
2023-03-13T09:16:09.340Z,17.18
2023-03-13T09:18:36.646Z,17.50
2023-03-13T09:21:07.043Z,16.23
2023-03-13T09:23:33.560Z,15.95
2023-03-13T09:26:00.052Z,15.70
2023-03-13T09:28:27.128Z,15.57
2023-03-13T09:30:54.177Z,16.61
2023-03-13T09:33:24.035Z,16.29
2023-03-13T09:35:51.194Z,15.64
2023-03-13T09:38:21.766Z,16.42
2023-03-13T09:41:04.947Z,16.56
2023-03-13T09:44:02.831Z,16.42
2023-03-13T09:46:41.060Z,17.17
2023-03-13T09:49:18.574Z,19.00
2023-03-13T09:51:50.244Z,20.35
2023-03-13T09:54:26.175Z,19.53
2023-03-13T09:56:57.551Z,20.76
2023-03-13T09:59:38.693Z,18.33
2023-03-13T10:02:21.662Z,17.78
2023-03-13T10:04:51.948Z,17.48
2023-03-13T10:07:20.817Z,17.03
2023-03-13T10:09:47.396Z,17.73
2023-03-13T10:12:23.020Z,17.84
2023-03-13T10:15:12.473Z,17.26
2023-03-13T10:17:40.236Z,17.40
2023-03-13T10:20:15.864Z,16.89
2023-03-13T10:22:48.902Z,17.50
2023-03-13T10:25:34.305Z,17.42
2023-03-13T10:28:01.682Z,17.61
2023-03-13T10:30:35.339Z,17.53
2023-03-13T10:33:18.310Z,16.87
2023-03-13T10:35:45.160Z,17.21
2023-03-13T10:38:14.759Z,17.31
2023-03-13T10:40:42.798Z,16.54
2023-03-13T10:43:22.375Z,16.95
2023-03-13T10:45:49.082Z,16.52
2023-03-13T10:48:20.456Z,17.21
2023-03-13T10:50:49.585Z,17.51
2023-03-13T10:53:30.470Z,16.50
2023-03-13T10:56:11.575Z,16.80
2023-03-13T10:58:44.084Z,17.66
2023-03-13T11:01:18.580Z,17.55
2023-03-13T11:03:46.990Z,16.84
2023-03-13T11:06:29.553Z,16.97
2023-03-13T11:09:05.969Z,17.26
2023-03-13T11:11:44.342Z,17.46
2023-03-13T11:14:16.028Z,17.24
2023-03-13T11:16:49.309Z,18.44
2023-03-13T11:19:41.233Z,18.41
2023-03-13T11:22:15.112Z,17.47
2023-03-13T11:24:56.685Z,18.07
2023-03-13T11:27:51.431Z,18.03
2023-03-13T11:30:25.456Z,20.21
2023-03-13T11:32:55.968Z,19.08
2023-03-13T11:35:49.829Z,18.20
2023-03-13T11:38:24.497Z,17.81
2023-03-13T11:40:56.294Z,18.68
2023-03-13T11:44:08.004Z,18.36
2023-03-13T11:46:53.245Z,18.13
2023-03-13T11:49:25.397Z,18.24
2023-03-13T11:52:20.080Z,17.32
2023-03-13T11:55:05.004Z,18.08
2023-03-13T11:57:38.432Z,17.90
2023-03-13T12:00:18.694Z,17.34
2023-03-13T12:02:59.247Z,18.15
2023-03-13T12:05:28.666Z,18.36
2023-03-13T12:08:18.442Z,18.03
2023-03-13T12:10:52.341Z,18.24
2023-03-13T12:13:46.109Z,17.84
2023-03-13T12:16:18.818Z,18.90
2023-03-13T12:18:46.373Z,18.27
2023-03-13T12:21:38.619Z,18.78
2023-03-13T12:24:33.126Z,18.78
2023-03-13T12:27:09.997Z,19.14
2023-03-13T12:30:08.779Z,19.60
2023-03-13T12:32:44.191Z,18.41
2023-03-13T12:35:25.987Z,22.08
2023-03-13T12:38:18.786Z,23.68
2023-03-13T12:40:53.061Z,32.42
2023-03-13T12:43:29.812Z,29.62
2023-03-13T12:45:59.228Z,27.09
2023-03-13T12:48:37.759Z,27.83
2023-03-13T12:51:42.058Z,31.34
2023-03-13T12:54:36.135Z,28.45
2023-03-13T12:57:55.941Z,26.06
2023-03-13T13:00:26.891Z,28.89
2023-03-13T13:03:17.274Z,21.77
2023-03-13T13:06:08.207Z,26.71
2023-03-13T13:08:41.181Z,27.51
2023-03-13T13:11:47.140Z,29.95
2023-03-13T13:14:19.615Z,37.34
2023-03-13T13:16:54.055Z,35.61
2023-03-13T13:19:23.564Z,31.59
2023-03-13T13:22:27.870Z,29.76
2023-03-13T13:25:01.204Z,30.89
2023-03-13T13:27:36.899Z,26.62
2023-03-13T13:30:03.631Z,25.99
2023-03-13T13:32:41.804Z,25.29
2023-03-13T13:35:44.478Z,29.93
2023-03-13T13:38:19.600Z,29.87
2023-03-13T13:41:00.556Z,25.97
2023-03-13T13:43:36.829Z,26.12
2023-03-13T13:46:03.399Z,26.48
2023-03-13T13:48:32.598Z,25.77
2023-03-13T13:51:11.278Z,27.53
2023-03-13T13:53:46.910Z,29.73
2023-03-13T13:56:28.769Z,31.32
2023-03-13T13:59:20.322Z,26.78
2023-03-13T14:01:49.173Z,24.56
2023-03-13T14:04:24.931Z,24.26
2023-03-13T14:06:53.455Z,25.35
2023-03-13T14:09:50.123Z,23.78
2023-03-13T14:12:30.303Z,22.76
2023-03-13T14:15:34.330Z,23.41
2023-03-13T14:18:28.400Z,23.76
2023-03-13T14:21:02.889Z,23.23
2023-03-13T14:23:41.953Z,21.70
2023-03-13T14:26:10.768Z,22.69
2023-03-13T14:28:41.447Z,22.20
2023-03-13T14:31:08.595Z,22.06
2023-03-13T14:33:35.861Z,21.60
2023-03-13T14:36:02.526Z,21.15
2023-03-13T14:38:30.100Z,21.45
2023-03-13T14:40:56.982Z,22.51
2023-03-13T14:43:40.462Z,21.20
2023-03-13T14:46:30.446Z,22.99
2023-03-13T14:49:05.010Z,25.51
2023-03-13T14:51:31.577Z,26.07
2023-03-13T14:54:02.620Z,24.69
2023-03-13T14:56:42.987Z,25.39
2023-03-13T14:59:18.200Z,26.57
2023-03-13T15:01:45.976Z,26.78
2023-03-13T15:04:12.624Z,25.66
2023-03-13T15:06:39.399Z,26.51
2023-03-13T15:09:23.752Z,23.93
2023-03-13T15:12:00.680Z,25.37
2023-03-13T15:14:40.652Z,24.60
2023-03-13T15:17:13.282Z,25.74
2023-03-13T15:19:39.825Z,24.25
2023-03-13T15:22:12.137Z,24.15
2023-03-13T15:24:38.753Z,23.37
2023-03-13T15:27:14.920Z,24.55
2023-03-13T15:29:41.415Z,24.25
2023-03-13T15:32:16.734Z,24.33
2023-03-13T15:34:43.225Z,23.81
2023-03-13T15:37:12.179Z,23.68
2023-03-13T15:39:38.694Z,24.17
2023-03-13T15:42:05.358Z,24.41
2023-03-13T15:44:31.857Z,23.82
2023-03-13T15:46:58.661Z,23.87
2023-03-13T15:49:25.194Z,23.97
2023-03-13T15:51:51.721Z,23.47
2023-03-13T15:54:18.247Z,23.07
2023-03-13T15:56:44.742Z,23.10
2023-03-13T15:59:13.991Z,23.52
2023-03-13T16:01:41.116Z,23.51
2023-03-13T16:04:07.918Z,23.61
2023-03-13T16:06:34.411Z,23.40
2023-03-13T16:09:03.746Z,22.87
2023-03-13T16:11:30.282Z,22.87
2023-03-13T16:13:57.565Z,23.05
2023-03-13T16:16:29.989Z,22.77
2023-03-13T16:18:57.541Z,22.80
2023-03-13T16:21:29.862Z,22.60
2023-03-13T16:23:56.504Z,22.47
2023-03-13T16:26:25.488Z,22.05
2023-03-13T16:28:53.619Z,21.89
2023-03-13T16:31:29.266Z,21.98
2023-03-13T16:33:56.966Z,21.71
2023-03-13T16:36:28.122Z,21.75
2023-03-13T16:38:54.730Z,21.64
2023-03-13T16:41:23.218Z,21.41
2023-03-13T16:43:50.654Z,21.27
2023-03-13T16:46:23.320Z,21.51
2023-03-13T16:48:50.798Z,21.34
2023-03-13T16:51:23.315Z,21.15
2023-03-13T16:53:52.091Z,21.37
2023-03-13T16:56:26.615Z,20.96
2023-03-13T16:58:54.130Z,20.70
2023-03-13T17:01:21.469Z,20.82
2023-03-13T17:03:47.982Z,20.55
2023-03-13T17:06:29.391Z,20.46
2023-03-13T17:08:56.479Z,20.30
2023-03-13T17:11:23.498Z,20.45
2023-03-13T17:13:52.307Z,20.34
2023-03-13T17:16:22.586Z,20.31
2023-03-13T17:18:51.680Z,20.01
2023-03-13T17:21:20.956Z,20.08
2023-03-13T17:23:47.626Z,19.88
2023-03-13T17:26:17.293Z,19.91
2023-03-13T17:28:45.361Z,19.98
2023-03-13T17:31:12.340Z,19.65
2023-03-13T17:33:40.608Z,19.54
2023-03-13T17:36:18.451Z,19.57
2023-03-13T17:38:45.974Z,19.54
2023-03-13T17:41:14.330Z,19.53
2023-03-13T17:43:41.432Z,19.15
2023-03-13T17:46:17.829Z,19.22
2023-03-13T17:48:45.630Z,19.33
2023-03-13T17:51:24.079Z,19.30
2023-03-13T17:53:51.889Z,19.25
2023-03-13T17:56:23.906Z,19.58
2023-03-13T17:58:52.291Z,19.26
2023-03-13T18:01:21.415Z,19.54
2023-03-13T18:04:06.641Z,19.29
2023-03-13T18:06:53.474Z,19.25
2023-03-13T18:09:40.552Z,19.58
2023-03-13T18:12:27.368Z,19.17
2023-03-13T18:15:14.268Z,19.02
2023-03-13T18:18:01.087Z,19.33
2023-03-13T18:20:48.024Z,19.07
2023-03-13T18:23:34.873Z,19.18
2023-03-13T18:26:32.343Z,19.00
2023-03-13T18:29:27.197Z,18.69
2023-03-13T18:32:16.105Z,18.83
2023-03-13T18:35:02.946Z,18.84
2023-03-13T18:37:50.050Z,18.56
2023-03-13T18:40:36.874Z,18.80
2023-03-13T18:43:23.680Z,18.53
2023-03-13T18:46:26.500Z,18.79
2023-03-13T18:49:20.306Z,19.13
2023-03-13T18:52:07.458Z,18.76
2023-03-13T18:54:54.267Z,18.63
2023-03-13T18:57:41.399Z,18.69
2023-03-13T19:00:30.605Z,19.41
2023-03-13T19:03:20.200Z,18.79
2023-03-13T19:06:27.225Z,18.60
2023-03-13T19:09:43.607Z,18.62
2023-03-13T19:12:30.052Z,18.29
2023-03-13T19:15:17.707Z,18.48
2023-03-13T19:18:04.658Z,18.45
2023-03-13T19:20:51.859Z,18.60
2023-03-13T19:23:38.718Z,18.91
2023-03-13T19:26:30.625Z,18.81
2023-03-13T19:29:20.400Z,18.54
2023-03-13T19:32:10.865Z,18.32
2023-03-13T19:34:57.776Z,18.13
2023-03-13T19:37:45.625Z,18.32
2023-03-13T19:40:32.600Z,17.46
2023-03-13T19:43:19.413Z,17.67
2023-03-13T19:46:12.553Z,17.63
2023-03-13T19:49:01.499Z,17.72
2023-03-13T19:51:48.751Z,17.46
2023-03-13T19:54:35.629Z,17.33
2023-03-13T19:57:22.801Z,17.53
2023-03-13T20:00:24.644Z,18.00
2023-03-13T20:03:11.424Z,18.15
2023-03-13T20:05:58.245Z,17.81
2023-03-13T20:08:46.017Z,17.57
2023-03-13T20:11:33.514Z,17.52
2023-03-13T20:14:20.407Z,17.48
2023-03-13T20:17:07.270Z,16.93
2023-03-13T20:19:54.101Z,16.01
2023-03-13T20:22:41.078Z,15.46
2023-03-13T20:25:28.639Z,14.74
2023-03-13T20:28:15.479Z,15.39
2023-03-13T20:31:02.439Z,14.38
2023-03-13T20:33:49.321Z,15.57
2023-03-13T20:36:36.175Z,16.10
2023-03-13T20:39:24.474Z,16.08
2023-03-13T20:42:11.524Z,16.51
2023-03-13T20:44:58.355Z,16.25
2023-03-13T20:47:45.184Z,16.31
2023-03-13T20:50:32.189Z,15.82
2023-03-13T20:53:19.856Z,15.73
2023-03-13T20:56:07.642Z,16.36
2023-03-13T20:58:54.573Z,16.46
2023-03-13T21:01:41.504Z,16.75
2023-03-13T21:04:28.473Z,16.55
2023-03-13T21:07:15.356Z,15.19
2023-03-13T21:10:02.792Z,16.09
2023-03-13T21:12:49.737Z,16.00
2023-03-13T21:15:37.090Z,15.72
2023-03-13T21:18:23.916Z,15.42
2023-03-13T21:21:15.109Z,15.77
2023-03-13T21:24:02.059Z,14.51
2023-03-13T21:26:48.874Z,14.53
2023-03-13T21:29:35.688Z,14.58
2023-03-13T21:32:23.134Z,14.39
2023-03-13T21:35:11.325Z,15.35
2023-03-13T21:37:58.145Z,15.76
2023-03-13T21:40:45.043Z,20.13
2023-03-13T21:43:31.868Z,18.00
2023-03-13T21:46:20.729Z,16.88
2023-03-13T21:49:07.590Z,16.35
2023-03-13T21:51:56.287Z,15.99
2023-03-13T21:54:43.050Z,15.85
2023-03-13T21:57:29.850Z,22.12
2023-03-13T22:00:17.005Z,20.80
2023-03-13T22:03:04.037Z,18.90
2023-03-13T22:05:50.870Z,18.70
2023-03-13T22:08:37.673Z,19.10
2023-03-13T22:11:24.455Z,19.03
2023-03-13T22:14:11.399Z,18.05
2023-03-13T22:16:58.163Z,19.52
2023-03-13T22:19:48.375Z,18.53
2023-03-13T22:22:35.404Z,19.89
2023-03-13T22:25:22.219Z,18.21
2023-03-13T22:28:10.872Z,17.21
2023-03-13T22:31:01.743Z,17.11
2023-03-13T22:33:48.551Z,16.53
2023-03-13T22:36:35.363Z,16.18
2023-03-13T22:39:22.554Z,16.16
2023-03-13T22:42:09.379Z,17.09
2023-03-13T22:44:56.239Z,15.42
2023-03-13T22:47:43.029Z,17.17
2023-03-13T22:50:29.803Z,16.60
2023-03-13T22:53:16.632Z,15.81
2023-03-13T22:56:04.165Z,15.43
2023-03-13T22:58:51.192Z,15.39
2023-03-13T23:01:38.036Z,15.39
2023-03-13T23:04:24.900Z,14.97
2023-03-13T23:07:11.682Z,15.57
2023-03-13T23:09:59.075Z,16.82
2023-03-13T23:12:45.894Z,16.17
2023-03-13T23:15:42.953Z,15.72
2023-03-13T23:18:39.821Z,16.00
2023-03-13T23:21:26.628Z,15.96
2023-03-13T23:24:13.447Z,15.93
2023-03-13T23:27:00.273Z,16.82
2023-03-13T23:29:47.436Z,16.19
2023-03-13T23:32:38.493Z,15.49
2023-03-13T23:35:25.734Z,16.47
2023-03-13T23:38:12.821Z,16.00
2023-03-13T23:40:59.714Z,16.43
2023-03-13T23:43:46.630Z,15.32
2023-03-13T23:46:33.445Z,15.26
2023-03-13T23:49:20.280Z,15.60
2023-03-13T23:52:08.832Z,15.37
2023-03-13T23:54:55.625Z,15.32
2023-03-13T23:57:42.422Z,14.92
